Time;durP1;ratioP1;P1;durP2;ratioP2;P2;SDS_P1;SDS_P2;PMS_P1;PMS_P2;Temp;Humidity;BMP_temperature;BMP_pressure;BME280_temperature;BME280_humidity;BME280_pressure;Samples;Min_cycle;Max_cycle;Signal;HPM_P1;HPM_P2
2024/02/02 05:02:05;;;;;;;5.43;2.60;;;4.20;97.30;;;;;;5387202;23;21017;-91
2024/02/02 05:04:30;;;;;;;1.43;1.10;;;4.20;97.30;;;;;;5036611;28;20430;-91
2024/02/02 05:06:56;;;;;;;1.67;1.57;;;4.20;97.30;;;;;;5035544;28;20210;-92
2024/02/02 05:09:21;;;;;;;1.43;1.33;;;4.20;97.30;;;;;;5036754;28;20743;-93
2024/02/02 05:11:47;;;;;;;17.23;2.40;;;4.20;97.30;;;;;;5050101;28;20192;-91
2024/02/02 05:14:12;;;;;;;2.00;1.63;;;4.20;97.30;;;;;;5056298;28;20193;-94
2024/02/02 05:16:39;;;;;;;7.20;5.07;;;4.30;97.30;;;;;;5031758;28;20235;-92
2024/02/02 05:19:04;;;;;;;3.73;2.20;;;4.30;97.30;;;;;;5048721;28;20423;-92
2024/02/02 05:21:30;;;;;;;2.00;1.90;;;4.30;97.30;;;;;;5048418;28;20259;-92
2024/02/02 05:23:56;;;;;;;1.10;1.00;;;4.30;97.30;;;;;;5044759;28;20677;-90
2024/02/02 05:26:23;;;;;;;2.73;2.37;;;4.30;97.30;;;;;;5046707;28;20496;-90
2024/02/02 05:28:49;;;;;;;1.17;1.07;;;4.30;97.30;;;;;;5044968;28;20417;-92
2024/02/02 05:31:15;;;;;;;1.83;1.73;;;4.30;97.30;;;;;;5044858;28;20991;-91
2024/02/02 05:33:42;;;;;;;15.13;2.57;;;4.30;97.30;;;;;;5046145;28;20255;-92
2024/02/02 05:36:10;;;;;;;2.40;1.80;;;4.30;97.30;;;;;;5044262;28;20235;-93
2024/02/02 05:38:37;;;;;;;1.93;1.80;;;4.30;97.30;;;;;;5046764;28;20421;-92
2024/02/02 05:41:03;;;;;;;1.47;1.40;;;4.30;97.30;;;;;;5036346;28;21121;-92
2024/02/02 05:43:29;;;;;;;2.50;2.30;;;4.40;97.30;;;;;;5037824;28;20417;-91
2024/02/02 05:45:55;;;;;;;1.93;1.83;;;4.40;97.30;;;;;;5033624;28;20423;-92
2024/02/02 05:48:20;;;;;;;3.40;1.80;;;4.40;97.30;;;;;;5025111;28;20425;-90
2024/02/02 05:50:47;;;;;;;3.63;3.43;;;4.40;97.30;;;;;;5037560;28;20580;-92
2024/02/02 05:53:13;;;;;;;10.20;1.10;;;4.40;97.30;;;;;;5029069;28;20209;-93
2024/02/02 05:55:39;;;;;;;14.30;4.30;;;4.40;97.30;;;;;;5038301;28;20458;-90
2024/02/02 05:58:05;;;;;;;1.77;1.67;;;4.40;97.30;;;;;;5042462;28;20455;-91
2024/02/02 06:00:30;;;;;;;1.73;1.50;;;4.40;97.30;;;;;;5046157;28;20411;-92
2024/02/02 06:02:56;;;;;;;2.70;2.20;;;4.40;97.30;;;;;;5036679;28;21003;-93
2024/02/02 06:05:22;;;;;;;2.40;1.90;;;4.50;97.30;;;;;;5036378;28;20192;-89
2024/02/02 06:07:47;;;;;;;3.33;3.13;;;4.50;97.30;;;;;;5033610;28;20721;-93
2024/02/02 06:10:13;;;;;;;4.03;2.20;;;4.50;97.30;;;;;;5037843;28;20203;-93
2024/02/02 06:12:38;;;;;;;1.87;1.77;;;4.50;97.30;;;;;;5036512;28;20704;-93
2024/02/02 06:15:06;;;;;;;3.23;3.03;;;4.60;97.30;;;;;;5034707;28;20197;-90
2024/02/02 06:17:32;;;;;;;1.20;1.10;;;4.50;97.30;;;;;;5036809;28;20536;-93
2024/02/02 06:19:57;;;;;;;5.33;2.10;;;4.50;97.30;;;;;;5036319;28;20480;-92
2024/02/02 06:22:23;;;;;;;2.00;1.90;;;4.50;97.30;;;;;;5027380;28;20255;-91
2024/02/02 06:24:48;;;;;;;4.87;4.03;;;4.50;97.30;;;;;;5035845;28;20205;-92
2024/02/02 06:27:15;;;;;;;1.70;1.57;;;4.50;97.30;;;;;;5035745;28;20733;-93
2024/02/02 06:29:41;;;;;;;12.33;2.20;;;4.50;97.30;;;;;;5035628;28;20268;-91
2024/02/02 06:32:07;;;;;;;1.70;1.60;;;4.50;97.30;;;;;;5035142;28;20478;-92
2024/02/02 06:34:32;;;;;;;4.90;4.37;;;4.50;97.30;;;;;;5026898;28;20179;-92
2024/02/02 06:36:57;;;;;;;1.77;1.67;;;4.50;97.30;;;;;;5035621;28;20435;-91
2024/02/02 06:39:23;;;;;;;1.20;1.10;;;4.50;97.30;;;;;;5035191;28;20282;-93
2024/02/02 06:41:49;;;;;;;3.50;3.30;;;4.60;97.30;;;;;;5026855;28;20207;-93
2024/02/02 06:44:15;;;;;;;1.83;1.67;;;4.60;97.30;;;;;;5035797;28;20948;-93
2024/02/02 06:46:40;;;;;;;1.63;1.53;;;4.60;97.30;;;;;;5032929;28;20253;-93
2024/02/02 06:49:06;;;;;;;3.20;3.03;;;4.60;97.30;;;;;;5028743;28;20193;-92
2024/02/02 06:51:35;;;;;;;1.43;1.33;;;4.50;97.30;;;;;;5042771;23;20232;-88
2024/02/02 06:54:18;;;;;;;;;;;;;;;;;;;;;
2024/02/02 06:56:47;;;;;;;3.17;1.33;;;4.60;97.30;;;;;;5042772;28;20465;-88
2024/02/02 06:59:16;;;;;;;3.00;2.80;;;4.60;97.30;;;;;;5032870;28;20449;-87
2024/02/02 07:02:37;;;;;;;;;;;;;;;;;;;;;
2024/02/02 07:05:06;;;;;;;2.40;1.70;;;4.60;97.30;;;;;;5050580;28;20424;-87
2024/02/02 07:07:35;;;;;;;8.67;2.83;;;4.60;97.30;;;;;;5032774;28;20422;-87
2024/02/02 07:10:25;;;;;;;1.70;1.60;;;4.60;97.30;;;;;;5024949;28;20483;-87
2024/02/02 07:13:16;;;;;;;3.80;2.63;;;4.70;97.30;;;;;;5025854;28;20450;-88
2024/02/02 07:15:56;;;;;;;2.13;1.97;;;4.70;97.30;;;;;;5034678;28;20458;-87
2024/02/02 07:18:37;;;;;;;8.93;1.80;;;4.70;97.30;;;;;;5026396;28;20841;-87
2024/02/02 07:22:06;;;;;;;1.17;1.07;;;4.70;97.30;;;;;;5028092;28;20439;-87
2024/02/02 07:24:35;;;;;;;2.60;1.37;;;4.80;97.30;;;;;;4893582;29;20436;-87
2024/02/02 07:27:26;;;;;;;3.10;2.93;;;4.80;97.30;;;;;;4896405;29;20452;-86
2024/02/02 07:31:01;;;;;;;;;;;;;;;;;;;;;
2024/02/02 07:34:15;;;;;;;4.30;2.77;;;4.90;97.30;;;;;;5002057;28;20527;-86
2024/02/02 07:36:47;;;;;;;1.10;1.00;;;4.90;97.30;;;;;;4967454;28;20461;-86
2024/02/02 07:39:35;;;;;;;1.93;1.83;;;4.90;97.30;;;;;;4954439;28;20884;-87
2024/02/02 07:42:06;;;;;;;4.87;1.93;;;4.90;97.30;;;;;;4982497;28;20456;-87
2024/02/02 07:44:35;;;;;;;1.67;1.57;;;4.90;97.30;;;;;;5002520;28;20423;-87
2024/02/02 07:47:26;;;;;;;1.90;1.80;;;5.00;97.30;;;;;;5025766;28;20418;-87
2024/02/02 07:49:54;;;;;;;1.53;1.43;;;5.00;97.30;;;;;;5031328;28;20411;-87
2024/02/02 07:52:24;;;;;;;2.17;2.00;;;5.00;97.30;;;;;;5025749;28;20843;-87
2024/02/02 07:55:25;;;;;;;3.13;2.13;;;5.00;97.30;;;;;;5031123;28;20468;-87
2024/02/02 07:57:57;;;;;;;2.33;2.13;;;5.10;97.30;;;;;;5031368;28;20437;-87
2024/02/02 08:01:06;;;;;;;1.20;1.10;;;5.10;97.30;;;;;;5023784;28;20416;-87
2024/02/02 08:03:37;;;;;;;1.73;1.63;;;5.10;97.30;;;;;;5028274;28;20422;-86
2024/02/02 08:06:06;;;;;;;2.27;2.07;;;5.10;97.30;;;;;;5027147;28;20518;-87
2024/02/02 08:08:45;;;;;;;2.00;1.90;;;5.20;97.30;;;;;;5039161;28;20452;-87
2024/02/02 08:11:25;;;;;;;1.37;1.27;;;5.20;97.30;;;;;;5031994;28;20516;-87
2024/02/02 08:13:57;;;;;;;1.30;1.20;;;5.30;97.30;;;;;;5033492;28;20452;-87
2024/02/02 08:16:26;;;;;;;2.57;1.97;;;5.30;97.30;;;;;;5052448;28;20454;-87
2024/02/02 08:18:57;;;;;;;1.20;1.10;;;5.40;97.30;;;;;;5033871;28;20438;-87
2024/02/02 08:22:05;;;;;;;2.20;2.03;;;5.40;97.30;;;;;;5034664;28;20554;-87
2024/02/02 08:24:36;;;;;;;2.67;2.10;;;5.40;97.30;;;;;;5031721;28;20415;-87
2024/02/02 08:27:06;;;;;;;2.90;1.30;;;5.50;97.30;;;;;;5043711;28;20825;-87
2024/02/02 08:29:50;;;;;;;;;;;;;;;;;;;;;
2024/02/02 08:32:16;;;;;;;3.30;2.20;;;5.50;97.30;;;;;;5045317;28;21009;-87
2024/02/02 08:34:46;;;;;;;1.80;1.27;;;5.50;97.30;;;;;;5026609;28;20514;-87
2024/02/02 08:37:34;;;;;;;7.53;2.00;;;5.50;97.30;;;;;;5052213;28;20669;-87
2024/02/02 08:41:06;;;;;;;1.20;1.13;;;5.40;97.30;;;;;;5027236;28;20497;-87
2024/02/02 08:43:45;;;;;;;1.10;1.00;;;5.40;97.30;;;;;;4978396;28;20424;-88
2024/02/02 08:46:38;;;;;;;;;;;;;;;;;;;;;
2024/02/02 08:49:45;;;;;;;1.63;1.60;;;5.40;97.30;;;;;;5045339;28;20931;-87
2024/02/02 08:52:35;;;;;;;2.23;2.10;;;5.40;97.30;;;;;;4983195;28;1145799;-87
2024/02/02 08:55:26;;;;;;;1.83;1.40;;;5.30;97.30;;;;;;5048714;28;20236;-88
2024/02/02 08:58:36;;;;;;;1.23;1.13;;;5.30;97.30;;;;;;5062095;28;20433;-88
2024/02/02 09:01:26;;;;;;;2.60;1.43;;;5.20;97.30;;;;;;5057694;28;20477;-90
2024/02/02 09:04:27;;;;;;;1.27;1.17;;;5.20;97.30;;;;;;5059123;28;20441;-89
2024/02/02 09:07:07;;;;;;;1.50;1.40;;;5.20;97.30;;;;;;5073445;28;20479;-88
2024/02/02 09:09:37;;;;;;;1.27;1.17;;;5.30;97.30;;;;;;5046941;28;20589;-89
2024/02/02 09:12:05;;;;;;;5.33;2.70;;;5.30;97.30;;;;;;5041393;28;20815;-89
2024/02/02 09:14:37;;;;;;;3.00;1.83;;;5.40;97.30;;;;;;5042876;28;20415;-88
2024/02/02 09:17:07;;;;;;;1.93;1.83;;;5.40;97.30;;;;;;5050944;28;20488;-89
2024/02/02 09:19:55;;;;;;;3.43;1.53;;;5.40;97.30;;;;;;5052537;28;20448;-89
2024/02/02 09:22:27;;;;;;;1.20;1.10;;;5.40;97.30;;;;;;5062059;28;20518;-89
2024/02/02 09:25:46;;;;;;;1.10;1.00;;;5.40;97.30;;;;;;5044953;28;20427;-89
2024/02/02 09:28:47;;;;;;;1.37;1.27;;;5.40;97.30;;;;;;5033486;28;20446;-88
2024/02/02 09:31:25;;;;;;;1.20;1.10;;;5.40;97.30;;;;;;5053207;28;20918;-89
2024/02/02 09:33:56;;;;;;;3.13;2.30;;;5.40;97.30;;;;;;5073069;28;20420;-89
2024/02/02 09:36:26;;;;;;;1.20;1.10;;;5.40;97.30;;;;;;5047783;28;20449;-89
2024/02/02 09:39:34;;;;;;;20.23;1.67;;;5.50;97.30;;;;;;5041152;28;20783;-87
2024/02/02 09:42:27;;;;;;;1.73;1.67;;;5.50;97.30;;;;;;5056654;28;20581;-87
2024/02/02 09:45:35;;;;;;;1.10;1.07;;;5.50;97.30;;;;;;5047550;28;20520;-89
2024/02/02 09:48:25;;;;;;;1.93;1.83;;;5.60;97.30;;;;;;5047738;28;20417;-88
2024/02/02 09:51:17;;;;;;;4.77;3.20;;;5.60;97.30;;;;;;5050816;28;20418;-87
2024/02/02 09:58:06;;;;;;;0.90;0.80;;;5.70;97.30;;;;;;5054972;28;20755;-88
2024/02/02 10:04:06;;;;;;;1.10;1.00;;;5.80;97.30;;;;;;5042932;28;20525;-87
2024/02/02 10:10:28;;;;;;;1.60;1.53;;;5.90;97.30;;;;;;5056806;28;20870;-88
2024/02/02 10:13:31;;;;;;;3.33;2.50;;;5.90;97.30;;;;;;5038653;28;20457;-89
2024/02/02 10:16:10;;;;;;;0.93;0.83;;;6.00;97.30;;;;;;5046096;28;20514;-89
2024/02/02 10:18:47;;;;;;;1.10;1.00;;;6.00;97.30;;;;;;5054068;28;20578;-87
2024/02/02 10:21:54;;;;;;;1.13;1.03;;;6.10;97.30;;;;;;5048506;28;20441;-88
2024/02/02 10:24:35;;;;;;;0.93;0.83;;;6.30;97.30;;;;;;5015751;28;20791;-89
2024/02/02 10:27:17;;;;;;;1.00;0.90;;;6.40;97.30;;;;;;5064483;28;20425;-87
2024/02/02 10:29:51;;;;;;;1.10;1.00;;;6.40;97.30;;;;;;5045960;28;20429;-89
2024/02/02 10:32:44;;;;;;;1.70;1.63;;;6.50;97.30;;;;;;5053293;28;20444;-88
2024/02/02 10:35:30;;;;;;;1.73;1.50;;;6.50;97.30;;;;;;5047151;28;20449;-88
2024/02/02 10:38:07;;;;;;;1.50;1.40;;;6.50;97.30;;;;;;5046040;28;20421;-88
2024/02/02 10:40:44;;;;;;;3.07;1.73;;;6.50;97.30;;;;;;5053357;28;20996;-89
2024/02/02 10:43:47;;;;;;;0.97;0.97;;;6.60;97.30;;;;;;5047595;28;20418;-88
2024/02/02 10:46:31;;;;;;;1.07;0.97;;;6.50;97.30;;;;;;5048821;28;20414;-87
2024/02/02 10:49:08;;;;;;;3.70;2.50;;;6.50;97.30;;;;;;5079512;28;20428;-88
2024/02/02 10:51:47;;;;;;;16.17;1.93;;;6.60;97.30;;;;;;5056902;28;20476;-88
2024/02/02 10:54:46;;;;;;;2.30;1.53;;;6.60;97.30;;;;;;5046638;28;20969;-87
2024/02/02 10:57:30;;;;;;;1.40;1.30;;;6.70;97.30;;;;;;5048144;28;20433;-88
2024/02/02 11:00:07;;;;;;;1.23;1.23;;;6.70;97.30;;;;;;5051561;28;20421;-88
2024/02/02 11:02:59;;;;;;;2.87;2.57;;;6.70;97.30;;;;;;5046709;28;20445;-87
2024/02/02 11:06:22;;;;;;;1.10;1.00;;;6.80;97.30;;;;;;5053353;28;20460;-86
2024/02/02 11:09:23;;;;;;;1.17;1.07;;;6.90;97.30;;;;;;4973067;28;20873;-87
2024/02/02 11:12:15;;;;;;;2.10;1.27;;;6.90;97.30;;;;;;4972431;28;20483;-87
2024/02/02 11:15:18;;;;;;;1.00;0.90;;;6.90;97.30;;;;;;5031817;28;20517;-88
2024/02/02 11:17:55;;;;;;;2.03;1.90;;;6.90;97.30;;;;;;5045921;28;20587;-87
2024/02/02 11:20:39;;;;;;;1.43;1.33;;;7.00;97.30;;;;;;5055548;28;20414;-88
2024/02/02 11:23:25;;;;;;;1.00;0.90;;;7.00;97.30;;;;;;5048554;28;20409;-88
2024/02/02 11:26:03;;;;;;;1.37;1.13;;;7.00;97.30;;;;;;5054208;28;20417;-86
2024/02/02 11:28:39;;;;;;;1.00;0.90;;;7.10;97.30;;;;;;5044508;28;20472;-87
2024/02/02 11:31:31;;;;;;;1.53;1.23;;;7.10;97.30;;;;;;5053336;28;20437;-86
2024/02/02 11:34:10;;;;;;;1.63;1.10;;;7.20;97.30;;;;;;5044888;28;20853;-87
2024/02/02 11:37:03;;;;;;;1.00;0.90;;;7.20;97.30;;;;;;5056280;28;20461;-88
2024/02/02 11:39:56;;;;;;;1.20;1.10;;;7.30;97.30;;;;;;5053539;28;20421;-87
2024/02/02 11:42:24;;;;;;;7.93;1.27;;;7.30;97.30;;;;;;5047350;28;21021;-88
2024/02/02 11:44:52;;;;;;;16.67;2.43;;;7.40;97.30;;;;;;5056997;28;20489;-87
2024/02/02 11:47:19;;;;;;;1.10;1.00;;;7.50;97.10;;;;;;5053049;28;20422;-88
2024/02/02 11:49:48;;;;;;;1.10;1.00;;;7.60;96.70;;;;;;5051768;28;20424;-86
2024/02/02 11:52:22;;;;;;;1.30;1.20;;;7.60;96.50;;;;;;5056031;28;20457;-88
2024/02/02 11:55:21;;;;;;;1.47;1.37;;;7.60;96.30;;;;;;5045837;28;20416;-87
2024/02/02 11:57:53;;;;;;;1.63;1.53;;;7.50;96.20;;;;;;5068666;28;20470;-87
2024/02/02 12:00:49;;;;;;;1.63;1.53;;;7.50;96.50;;;;;;5053291;28;20435;-89
2024/02/02 12:03:30;;;;;;;1.47;1.37;;;7.50;96.20;;;;;;5050369;28;20431;-88
2024/02/02 12:06:13;;;;;;;1.10;1.00;;;7.50;96.50;;;;;;5047555;28;20581;-87
2024/02/02 12:08:43;;;;;;;2.50;2.30;;;7.50;96.00;;;;;;5050328;28;20410;-88
2024/02/02 12:11:11;;;;;;;3.33;1.00;;;7.50;95.60;;;;;;5052791;28;20473;-88
2024/02/02 12:13:39;;;;;;;1.00;0.90;;;7.60;96.00;;;;;;5048136;28;20496;-88
2024/02/02 12:16:06;;;;;;;0.90;0.80;;;7.60;95.50;;;;;;5044215;28;20556;-87
2024/02/02 12:18:32;;;;;;;1.20;1.10;;;7.60;95.70;;;;;;5044558;28;20891;-88
2024/02/02 12:20:59;;;;;;;6.73;2.20;;;7.60;95.40;;;;;;5055756;28;20767;-88
2024/02/02 12:23:25;;;;;;;1.07;0.97;;;7.60;95.30;;;;;;5054609;28;20214;-87
2024/02/02 12:25:51;;;;;;;3.60;2.13;;;7.60;94.60;;;;;;5074170;28;20449;-88
2024/02/02 12:28:16;;;;;;;1.10;1.00;;;7.60;94.50;;;;;;5058265;28;20532;-87
2024/02/02 12:30:42;;;;;;;1.13;1.03;;;7.60;94.70;;;;;;5073887;28;20477;-88
2024/02/02 12:33:08;;;;;;;2.37;1.83;;;7.60;94.50;;;;;;5067522;28;20182;-88
2024/02/02 12:35:33;;;;;;;7.23;1.57;;;7.60;94.60;;;;;;5061706;28;20556;-88
2024/02/02 12:37:59;;;;;;;1.40;1.30;;;7.60;94.10;;;;;;5056371;28;20186;-88
2024/02/02 12:40:25;;;;;;;1.33;1.23;;;7.60;94.40;;;;;;5064261;28;20175;-87
2024/02/02 12:42:52;;;;;;;1.10;1.00;;;7.60;94.50;;;;;;5050224;28;20202;-88
2024/02/02 12:45:18;;;;;;;2.40;1.50;;;7.60;93.80;;;;;;5050875;28;20187;-88
2024/02/02 12:47:44;;;;;;;12.87;1.47;;;7.60;93.90;;;;;;5044997;28;20476;-86
2024/02/02 12:50:15;;;;;;;1.00;0.90;;;7.60;93.60;;;;;;5072586;28;20410;-87
2024/02/02 12:52:48;;;;;;;1.70;1.60;;;7.70;93.70;;;;;;5048992;28;20814;-88
2024/02/02 12:55:14;;;;;;;1.07;0.97;;;7.70;93.50;;;;;;5055418;28;20457;-88
2024/02/02 12:57:43;;;;;;;1.00;0.90;;;7.70;93.60;;;;;;5049726;28;20807;-87
2024/02/02 13:00:14;;;;;;;1.00;0.90;;;7.70;93.30;;;;;;5072502;28;20175;-89
2024/02/02 13:02:42;;;;;;;2.17;1.50;;;7.70;93.40;;;;;;5074472;28;20445;-89
2024/02/02 13:05:11;;;;;;;1.20;1.10;;;7.80;93.10;;;;;;5065782;28;20412;-88
2024/02/02 13:07:39;;;;;;;1.47;1.37;;;7.80;93.10;;;;;;5059106;28;20417;-89
2024/02/02 13:10:05;;;;;;;1.10;1.00;;;7.80;93.10;;;;;;5066081;28;20505;-87
2024/02/02 13:12:39;;;;;;;3.63;1.20;;;7.80;92.80;;;;;;5063899;28;20525;-89
2024/02/02 13:15:13;;;;;;;1.77;1.30;;;7.80;92.60;;;;;;5070753;28;20420;-88
2024/02/02 13:17:43;;;;;;;1.47;1.37;;;7.80;93.00;;;;;;5066002;28;20421;-89
2024/02/02 13:20:18;;;;;;;2.10;1.17;;;7.90;93.20;;;;;;5070963;28;20885;-88
2024/02/02 13:22:50;;;;;;;1.00;1.00;;;7.90;92.90;;;;;;5070873;28;20439;-87
2024/02/02 13:25:24;;;;;;;8.33;1.10;;;8.00;92.70;;;;;;5071738;28;20419;-89
2024/02/02 13:27:53;;;;;;;1.90;1.87;;;8.00;92.60;;;;;;5065419;28;20472;-89
2024/02/02 13:30:27;;;;;;;1.23;1.10;;;8.00;92.60;;;;;;5073218;28;20830;-90
2024/02/02 13:32:56;;;;;;;1.27;1.17;;;8.10;92.20;;;;;;5070960;28;20455;-89
2024/02/02 13:35:23;;;;;;;0.90;0.80;;;8.10;92.60;;;;;;5073929;28;20452;-90
2024/02/02 13:37:52;;;;;;;1.63;1.53;;;8.10;92.70;;;;;;5062727;28;20537;-90
2024/02/02 13:40:27;;;;;;;1.03;0.93;;;8.20;92.50;;;;;;5062852;28;20468;-89
2024/02/02 13:42:54;;;;;;;0.90;0.80;;;8.10;92.30;;;;;;5067284;28;20437;-88
2024/02/02 13:45:19;;;;;;;1.10;1.00;;;8.20;92.40;;;;;;5076404;28;20785;-90
2024/02/02 13:47:54;;;;;;;1.87;1.77;;;8.20;92.40;;;;;;5072727;28;20428;-87
2024/02/02 13:50:29;;;;;;;1.50;1.40;;;8.20;92.30;;;;;;5060587;28;20201;-86
2024/02/02 13:52:58;;;;;;;1.00;0.90;;;8.30;92.40;;;;;;5053125;28;21034;-87
2024/02/02 13:55:31;;;;;;;1.73;1.20;;;8.30;92.40;;;;;;5052026;28;20446;-87
2024/02/02 13:57:57;;;;;;;1.27;1.20;;;8.30;92.40;;;;;;5057922;28;20408;-86
2024/02/02 14:00:28;;;;;;;1.13;1.13;;;8.30;93.00;;;;;;5057642;28;20410;-87
2024/02/02 14:03:11;;;;;;;0.93;0.83;;;8.40;92.40;;;;;;5055691;28;20476;-86
2024/02/02 14:05:39;;;;;;;1.57;1.50;;;8.40;92.80;;;;;;5051902;28;20426;-89
2024/02/02 14:08:05;;;;;;;0.90;0.80;;;8.40;92.90;;;;;;5048986;28;20409;-89
2024/02/02 14:10:44;;;;;;;2.80;0.97;;;8.40;92.90;;;;;;5051209;28;20460;-89
2024/02/02 14:13:19;;;;;;;4.93;1.80;;;8.40;93.10;;;;;;5052449;28;20779;-89
2024/02/02 14:15:49;;;;;;;1.27;1.17;;;8.40;93.20;;;;;;5070475;28;20448;-90
2024/02/02 14:18:20;;;;;;;1.37;1.30;;;8.40;93.10;;;;;;5049725;28;20412;-88
2024/02/02 14:20:46;;;;;;;2.23;1.93;;;8.50;93.10;;;;;;5056669;28;20463;-89
2024/02/02 14:23:13;;;;;;;1.63;1.40;;;8.50;93.50;;;;;;5074744;28;20405;-90
2024/02/02 14:25:40;;;;;;;1.00;0.90;;;8.50;93.50;;;;;;5069210;28;20471;-90
2024/02/02 14:28:21;;;;;;;2.87;1.27;;;8.50;93.30;;;;;;5055292;28;20470;-89
2024/02/02 14:30:47;;;;;;;1.10;1.00;;;8.60;93.50;;;;;;5053890;28;20432;-89
2024/02/02 14:33:13;;;;;;;2.40;1.20;;;8.60;93.70;;;;;;5053288;28;20409;-90
2024/02/02 14:35:39;;;;;;;1.57;1.00;;;8.70;93.70;;;;;;5053952;28;20499;-91
2024/02/02 14:38:05;;;;;;;0.80;0.70;;;8.70;93.60;;;;;;5071629;28;20504;-91
2024/02/02 14:40:31;;;;;;;1.20;0.90;;;8.80;93.90;;;;;;5051057;28;20168;-89
2024/02/02 14:42:57;;;;;;;0.90;0.80;;;8.80;93.90;;;;;;5054319;28;20434;-91
2024/02/02 14:45:23;;;;;;;0.90;0.80;;;8.70;94.00;;;;;;5052969;28;20526;-88
2024/02/02 14:47:49;;;;;;;2.10;1.50;;;8.70;94.40;;;;;;5049923;28;20445;-90
2024/02/02 14:50:17;;;;;;;2.30;1.30;;;8.70;94.70;;;;;;5055210;28;20635;-89
2024/02/02 14:52:43;;;;;;;4.97;1.00;;;8.70;94.70;;;;;;5052259;28;20372;-88
2024/02/02 14:55:09;;;;;;;3.53;1.57;;;8.70;94.90;;;;;;5047609;28;20418;-90
2024/02/02 14:57:38;;;;;;;1.00;0.90;;;8.70;95.00;;;;;;5059017;28;20424;-90
2024/02/02 15:00:10;;;;;;;2.60;1.10;;;8.70;95.10;;;;;;5059651;28;20416;-91
2024/02/02 15:02:37;;;;;;;1.17;1.07;;;8.70;95.40;;;;;;5058466;28;20487;-88
2024/02/02 15:05:04;;;;;;;1.10;1.00;;;8.70;95.60;;;;;;5059131;28;20460;-91
2024/02/02 15:07:32;;;;;;;2.03;1.60;;;8.70;96.00;;;;;;5052965;28;20421;-91
2024/02/02 15:09:58;;;;;;;0.97;0.90;;;8.70;96.00;;;;;;5056372;28;20453;-91
2024/02/02 15:12:23;;;;;;;0.90;0.80;;;8.70;96.00;;;;;;5050949;28;20429;-89
2024/02/02 15:14:49;;;;;;;1.27;1.17;;;8.70;96.20;;;;;;5048740;28;20426;-91
2024/02/02 15:17:17;;;;;;;4.83;2.50;;;8.70;96.20;;;;;;5055557;28;20260;-91
2024/02/02 15:19:43;;;;;;;2.20;1.90;;;8.70;96.50;;;;;;5057492;28;20185;-91
2024/02/02 15:22:08;;;;;;;1.63;1.53;;;8.70;96.40;;;;;;5053952;28;20881;-92
2024/02/02 15:24:33;;;;;;;6.20;3.80;;;8.70;96.40;;;;;;5057378;28;20183;-92
2024/02/02 15:27:00;;;;;;;1.17;1.07;;;8.70;96.40;;;;;;5057192;28;20175;-92
2024/02/02 15:29:25;;;;;;;2.90;2.70;;;8.60;96.50;;;;;;5056392;28;20550;-91
2024/02/02 15:31:51;;;;;;;1.43;1.33;;;8.60;96.60;;;;;;5074505;28;20437;-92
2024/02/02 15:34:16;;;;;;;1.33;1.23;;;8.60;96.60;;;;;;5057507;28;20633;-90
2024/02/02 15:36:42;;;;;;;8.70;3.90;;;8.60;96.60;;;;;;5053064;28;20200;-91
2024/02/02 15:39:10;;;;;;;1.23;1.13;;;8.60;96.60;;;;;;5060249;28;20189;-91
2024/02/02 15:41:36;;;;;;;1.00;0.90;;;8.50;96.70;;;;;;5057929;28;20249;-89
2024/02/02 15:44:01;;;;;;;1.00;0.90;;;8.50;96.80;;;;;;5076513;28;21066;-89
2024/02/02 15:46:27;;;;;;;1.90;1.80;;;8.50;96.50;;;;;;5060523;28;20179;-90
2024/02/02 15:48:53;;;;;;;1.73;1.63;;;8.60;96.50;;;;;;5059682;28;20645;-90
2024/02/02 15:51:19;;;;;;;0.87;0.77;;;8.60;96.40;;;;;;5059483;28;20257;-92
2024/02/02 15:53:45;;;;;;;3.90;3.03;;;8.60;96.40;;;;;;5057627;28;20428;-91
2024/02/02 15:56:20;;;;;;;0.90;0.80;;;8.60;96.40;;;;;;5056177;28;20460;-91
2024/02/02 15:58:46;;;;;;;1.30;1.20;;;8.60;96.40;;;;;;5069632;28;20462;-91
2024/02/02 16:01:17;;;;;;;3.10;1.80;;;8.60;96.40;;;;;;5055004;28;20437;-91
2024/02/02 16:03:45;;;;;;;4.30;1.17;;;8.60;96.30;;;;;;5057139;28;20171;-91
2024/02/02 16:06:18;;;;;;;1.67;1.57;;;8.60;96.10;;;;;;5061209;28;20416;-90
2024/02/02 16:08:44;;;;;;;3.13;2.93;;;8.70;96.10;;;;;;5060052;28;20841;-91
2024/02/02 16:11:10;;;;;;;8.50;2.73;;;8.70;96.00;;;;;;5056735;28;20438;-91
2024/02/02 16:13:35;;;;;;;6.57;2.30;;;8.70;96.20;;;;;;5056921;28;20645;-91
2024/02/02 16:16:01;;;;;;;3.63;1.67;;;8.60;96.40;;;;;;5057529;28;20449;-88
2024/02/02 16:18:27;;;;;;;3.43;1.87;;;8.60;96.40;;;;;;5066017;28;20180;-90
2024/02/02 16:20:53;;;;;;;1.23;1.20;;;8.60;96.40;;;;;;5063612;28;20175;-90
2024/02/02 16:23:19;;;;;;;5.50;2.30;;;8.70;96.30;;;;;;5060127;28;20179;-90
2024/02/02 16:25:44;;;;;;;12.97;1.90;;;8.70;96.30;;;;;;5061547;28;20478;-90
2024/02/02 16:28:10;;;;;;;2.50;2.07;;;8.70;96.40;;;;;;5059214;28;20182;-90
2024/02/02 16:30:35;;;;;;;1.03;0.93;;;8.70;96.50;;;;;;5055308;28;20176;-90
2024/02/02 16:33:01;;;;;;;1.17;1.07;;;8.70;96.60;;;;;;5056665;28;20224;-90
2024/02/02 16:35:26;;;;;;;1.00;0.90;;;8.70;96.80;;;;;;5056968;28;20207;-91
2024/02/02 16:37:52;;;;;;;1.73;1.60;;;8.70;96.90;;;;;;5045218;28;20186;-90
2024/02/02 16:40:17;;;;;;;2.80;1.67;;;8.60;97.10;;;;;;5052604;28;20196;-90
2024/02/02 16:42:43;;;;;;;1.63;1.43;;;8.70;97.10;;;;;;5057232;28;20200;-89
2024/02/02 16:45:09;;;;;;;1.50;1.40;;;8.60;97.30;;;;;;5057812;28;20206;-91
2024/02/02 16:47:35;;;;;;;1.17;1.07;;;8.60;97.30;;;;;;5059256;28;20228;-90
2024/02/02 16:50:01;;;;;;;1.00;0.90;;;8.60;97.30;;;;;;5059108;28;20512;-90
2024/02/02 16:52:27;;;;;;;2.77;1.73;;;8.60;97.30;;;;;;5054786;28;21036;-90
2024/02/02 16:54:52;;;;;;;1.00;0.90;;;8.70;97.30;;;;;;5058119;28;20494;-91
2024/02/02 16:57:18;;;;;;;1.23;1.13;;;8.60;97.30;;;;;;5049589;28;20207;-91
2024/02/02 16:59:43;;;;;;;1.50;1.00;;;8.70;97.30;;;;;;5055191;28;20179;-91
2024/02/02 17:02:09;;;;;;;1.10;1.00;;;8.60;97.30;;;;;;5075865;28;20245;-90
2024/02/02 17:04:34;;;;;;;1.63;1.53;;;8.70;97.30;;;;;;5059377;28;20601;-90
2024/02/02 17:07:00;;;;;;;0.93;0.83;;;8.60;97.30;;;;;;5058350;28;20179;-90
2024/02/02 17:09:26;;;;;;;1.50;1.40;;;8.60;97.30;;;;;;5057634;28;20192;-90
2024/02/02 17:11:52;;;;;;;6.40;2.27;;;8.60;97.30;;;;;;5054507;28;20558;-89
2024/02/02 17:14:17;;;;;;;9.80;4.20;;;8.60;97.30;;;;;;5058787;28;20923;-89
2024/02/02 17:16:45;;;;;;;9.73;2.83;;;8.60;97.30;;;;;;5065984;28;20202;-92
2024/02/02 17:19:11;;;;;;;12.23;3.77;;;8.60;97.30;;;;;;5052294;28;20175;-90
2024/02/02 17:21:37;;;;;;;3.70;2.20;;;8.70;97.30;;;;;;5051760;28;20816;-90
2024/02/02 17:24:03;;;;;;;2.90;2.70;;;8.60;97.30;;;;;;5056438;28;20223;-89
2024/02/02 17:26:34;;;;;;;3.07;2.90;;;8.60;97.30;;;;;;5052953;28;20279;-89
2024/02/02 17:28:59;;;;;;;12.60;2.00;;;8.60;97.30;;;;;;5055111;28;20418;-90
2024/02/02 17:31:25;;;;;;;1.00;0.90;;;8.50;97.30;;;;;;5053909;28;20582;-91
2024/02/02 17:33:50;;;;;;;2.37;2.17;;;8.50;97.30;;;;;;5048262;28;20184;-90
2024/02/02 17:36:16;;;;;;;2.10;1.60;;;8.40;97.30;;;;;;5037805;28;20298;-90
2024/02/02 17:38:42;;;;;;;1.47;1.37;;;8.40;97.30;;;;;;5054052;28;20179;-91
2024/02/02 17:41:15;;;;;;;1.60;1.50;;;8.40;97.30;;;;;;5054327;28;20199;-89
2024/02/02 17:43:43;;;;;;;1.73;1.63;;;8.40;97.30;;;;;;5054075;28;20418;-90
2024/02/02 17:46:15;;;;;;;1.07;0.97;;;8.30;97.30;;;;;;5049725;28;20429;-90
2024/02/02 17:48:42;;;;;;;1.57;1.47;;;8.30;97.30;;;;;;5051230;28;20421;-90
2024/02/02 17:51:08;;;;;;;6.50;1.90;;;8.30;97.30;;;;;;5050366;28;20461;-90
2024/02/02 17:53:35;;;;;;;2.80;1.53;;;8.30;97.30;;;;;;5050099;28;20422;-90
2024/02/02 17:56:06;;;;;;;1.90;1.67;;;8.20;97.30;;;;;;5050346;28;20845;-90
2024/02/02 17:58:31;;;;;;;2.73;2.53;;;8.20;97.30;;;;;;5062903;28;20422;-89
2024/02/02 18:03:25;;;;;;;7.50;1.60;;;8.10;97.30;;;;;;4999587;28;20218;-66
2024/02/02 18:05:51;;;;;;;4.47;1.83;;;8.00;97.30;;;;;;4978379;28;20484;-66
2024/02/02 18:08:17;;;;;;;1.40;1.30;;;8.00;97.30;;;;;;4996522;28;20455;-66
2024/02/02 18:10:42;;;;;;;2.80;2.60;;;8.00;97.30;;;;;;4976043;28;20202;-65
2024/02/02 18:13:08;;;;;;;0.90;0.80;;;8.00;97.30;;;;;;4968912;28;20721;-66
2024/02/02 18:15:33;;;;;;;2.50;1.50;;;7.90;97.30;;;;;;4972260;28;20260;-66
2024/02/02 18:17:59;;;;;;;3.13;2.30;;;7.90;97.30;;;;;;4964113;28;20634;-66
2024/02/02 18:20:24;;;;;;;2.70;1.97;;;7.90;97.30;;;;;;4970891;28;20186;-66
2024/02/02 18:22:51;;;;;;;2.37;2.17;;;7.80;97.30;;;;;;4963185;28;20178;-66
2024/02/02 18:25:17;;;;;;;1.53;1.43;;;7.80;97.30;;;;;;4990042;28;20634;-66
2024/02/02 18:27:43;;;;;;;3.47;3.30;;;7.80;97.30;;;;;;4968897;28;20907;-66
2024/02/02 18:30:09;;;;;;;1.20;1.20;;;7.80;97.30;;;;;;4980031;28;20961;-66
2024/02/02 18:32:35;;;;;;;9.83;1.40;;;7.80;97.30;;;;;;4967870;28;20428;-67
2024/02/02 18:35:01;;;;;;;1.00;0.90;;;7.80;97.30;;;;;;4984997;28;20428;-67
2024/02/02 18:37:26;;;;;;;2.33;2.00;;;7.80;97.30;;;;;;4989649;28;20209;-66
2024/02/02 18:39:52;;;;;;;0.97;0.87;;;7.90;97.30;;;;;;4989688;28;20197;-66
2024/02/02 18:42:17;;;;;;;15.47;1.23;;;8.10;97.30;;;;;;4976923;28;20214;-67
2024/02/02 18:44:43;;;;;;;3.60;2.00;;;8.20;97.30;;;;;;4989952;28;20186;-65
2024/02/02 18:47:08;;;;;;;8.73;2.00;;;8.30;97.30;;;;;;4988870;28;20198;-66
2024/02/02 18:49:34;;;;;;;1.30;1.20;;;8.40;97.30;;;;;;4985052;28;20196;-66